Time;durP1;ratioP1;P1;durP2;ratioP2;P2;SDS_P1;SDS_P2;PMS_P1;PMS_P2;Temp;Humidity;BMP_temperature;BMP_pressure;BME280_temperature;BME280_humidity;BME280_pressure;Samples;Min_cycle;Max_cycle;Signal;HPM_P1;HPM_P2
2023/04/28 00:00:55;;;;;;;14.43;7.13;;;;;;;10.19;83.36;99119.03;4957296;28;20043;-62
2023/04/28 00:03:22;;;;;;;13.30;7.68;;;;;;;10.21;83.28;99117.75;4954796;28;20082;-62
2023/04/28 00:05:49;;;;;;;14.73;8.35;;;;;;;10.17;82.76;99123.81;4939414;28;20043;-62
2023/04/28 00:08:16;;;;;;;20.42;8.45;;;;;;;10.09;85.11;99115.13;4948374;28;20447;-62
2023/04/28 00:10:43;;;;;;;19.05;8.45;;;;;;;10.08;84.66;99120.72;4940525;28;20506;-62
2023/04/28 00:13:11;;;;;;;17.25;8.48;;;;;;;10.09;87.86;99109.78;4940226;28;20063;-62
2023/04/28 00:15:38;;;;;;;18.63;8.30;;;;;;;9.99;91.91;99101.56;4946584;28;20123;-62
2023/04/28 00:18:05;;;;;;;16.90;8.27;;;;;;;10.03;92.70;99102.69;4953669;28;20510;-62
2023/04/28 00:20:32;;;;;;;15.25;8.55;;;;;;;9.83;93.26;99102.34;4938660;28;20047;-62
2023/04/28 00:22:59;;;;;;;18.08;8.55;;;;;;;9.59;94.32;99086.41;4950802;28;20493;-62
2023/04/28 00:25:26;;;;;;;16.25;8.57;;;;;;;9.71;95.42;99087.16;4946753;28;20079;-62
2023/04/28 00:27:53;;;;;;;15.18;9.00;;;;;;;9.90;94.41;99082.41;4943805;28;20142;-62
2023/04/28 00:30:24;;;;;;;21.20;9.15;;;;;;;9.97;94.11;99071.53;4940172;28;20413;-62
2023/04/28 00:32:54;;;;;;;14.88;9.18;;;;;;;9.99;97.36;99069.44;4940211;28;20446;-62
2023/04/28 00:35:21;;;;;;;17.10;9.35;;;;;;;9.99;100.00;99064.09;4947107;28;20052;-62
2023/04/28 00:37:48;;;;;;;18.17;9.73;;;;;;;9.84;100.00;99055.78;4943448;28;20036;-62
2023/04/28 00:40:15;;;;;;;15.30;9.50;;;;;;;9.81;100.00;99058.94;4935206;28;20055;-62
2023/04/28 00:42:42;;;;;;;18.58;9.85;;;;;;;9.80;100.00;99060.00;4937506;28;20506;-62
2023/04/28 00:45:10;;;;;;;16.42;10.18;;;;;;;9.77;100.00;99055.94;4943288;28;20047;-62
2023/04/28 00:47:38;;;;;;;17.63;10.38;;;;;;;9.69;100.00;99048.31;4948649;28;20582;-62
2023/04/28 00:50:06;;;;;;;17.55;9.45;;;;;;;9.74;100.00;99050.28;4943906;28;20792;-62
2023/04/28 00:52:33;;;;;;;18.92;9.38;;;;;;;9.84;100.00;99040.53;4942364;28;20043;-62
2023/04/28 00:55:00;;;;;;;16.67;8.63;;;;;;;9.67;100.00;99029.81;4944620;28;20549;-62
2023/04/28 00:57:28;;;;;;;14.90;8.25;;;;;;;9.58;100.00;99033.91;4953872;28;20039;-62
2023/04/28 00:59:55;;;;;;;18.73;9.13;;;;;;;9.79;100.00;99031.63;4940323;28;20061;-62
2023/04/28 01:02:21;;;;;;;20.40;9.10;;;;;;;9.61;100.00;99025.44;4945459;28;20553;-62
2023/04/28 01:04:50;;;;;;;14.38;9.30;;;;;;;9.59;100.00;99016.84;4946837;28;20409;-62
2023/04/28 01:07:17;;;;;;;17.40;9.48;;;;;;;9.55;100.00;99020.22;4946679;28;20075;-62
2023/04/28 01:09:46;;;;;;;12.00;8.48;;;;;;;9.55;100.00;99021.03;4948373;28;20053;-62
2023/04/28 01:12:14;;;;;;;13.07;8.82;;;;;;;9.62;100.00;99008.31;4950610;28;20477;-62
2023/04/28 01:14:48;;;;;;;20.27;9.13;;;;;;;9.70;100.00;99005.22;4948949;28;20484;-62
2023/04/28 01:17:15;;;;;;;20.00;9.70;;;;;;;9.68;100.00;98998.50;4945262;28;20047;-62
2023/04/28 01:19:43;;;;;;;21.70;9.10;;;;;;;9.78;100.00;99003.22;4945711;28;20043;-63
2023/04/28 01:22:14;;;;;;;22.42;9.73;;;;;;;9.77;100.00;99001.59;4941533;28;20122;-63
2023/04/28 01:24:42;;;;;;;16.67;10.25;;;;;;;9.69;100.00;98998.28;4933750;28;20130;-63
2023/04/28 01:27:11;;;;;;;16.38;10.07;;;;;;;9.53;100.00;99004.41;4948828;28;20043;-63
2023/04/28 01:29:40;;;;;;;19.57;11.23;;;;;;;9.37;100.00;99013.22;4947233;28;20131;-63
2023/04/28 01:32:07;;;;;;;17.40;10.88;;;;;;;9.18;100.00;99005.38;4941551;28;20395;-63
2023/04/28 01:34:34;;;;;;;21.00;11.18;;;;;;;9.29;100.00;99001.84;4945116;28;20035;-63
2023/04/28 01:37:01;;;;;;;16.40;10.75;;;;;;;9.30;100.00;98999.97;4941749;28;20090;-61
2023/04/28 01:39:29;;;;;;;19.40;11.25;;;;;;;9.19;100.00;98995.50;4946383;28;20445;-63
2023/04/28 01:41:57;;;;;;;21.23;11.45;;;;;;;9.24;100.00;98993.75;4948994;28;20055;-63
2023/04/28 01:44:25;;;;;;;22.70;11.23;;;;;;;9.32;100.00;98986.38;4942047;28;20047;-61
2023/04/28 01:46:52;;;;;;;27.80;11.70;;;;;;;9.39;100.00;98979.84;4938573;28;20074;-63
2023/04/28 01:49:22;;;;;;;20.30;10.75;;;;;;;9.44;100.00;98992.50;4946248;28;20051;-63
2023/04/28 01:51:49;;;;;;;18.33;10.50;;;;;;;9.35;100.00;98986.69;4952473;28;20073;-63
2023/04/28 01:54:16;;;;;;;18.13;10.07;;;;;;;9.39;100.00;98979.84;4941658;28;20043;-63
2023/04/28 01:56:44;;;;;;;20.10;11.02;;;;;;;9.23;100.00;98980.59;4938295;28;20044;-63
2023/04/28 01:59:15;;;;;;;19.65;11.10;;;;;;;9.38;100.00;98974.72;4948525;28;20035;-63
2023/04/28 02:01:42;;;;;;;17.70;11.05;;;;;;;9.45;100.00;98972.69;4950038;28;20047;-61
2023/04/28 02:04:09;;;;;;;20.70;12.88;;;;;;;9.42;100.00;98970.50;4940817;28;20063;-61
2023/04/28 02:06:37;;;;;;;19.67;12.52;;;;;;;9.37;100.00;98967.75;4951453;28;20481;-62
2023/04/28 02:09:04;;;;;;;26.70;11.77;;;;;;;9.34;100.00;98957.53;4942527;28;20115;-62
2023/04/28 02:11:33;;;;;;;20.98;12.30;;;;;;;9.26;100.00;98959.56;4944643;28;20374;-63
2023/04/28 02:14:00;;;;;;;20.98;13.07;;;;;;;9.24;100.00;98967.00;4945195;28;20470;-63
2023/04/28 02:16:29;;;;;;;22.98;12.60;;;;;;;9.27;100.00;98961.16;4940270;28;20043;-63
2023/04/28 02:18:56;;;;;;;20.55;12.75;;;;;;;9.29;100.00;98953.72;4942960;28;20051;-63
2023/04/28 02:21:23;;;;;;;19.73;12.93;;;;;;;9.26;100.00;98964.91;4945919;28;20078;-63
2023/04/28 02:23:50;;;;;;;21.17;13.13;;;;;;;9.29;100.00;98964.41;4952483;28;20490;-63
2023/04/28 02:26:17;;;;;;;20.52;12.50;;;;;;;9.37;100.00;98965.06;4944532;28;20134;-63
2023/04/28 02:28:44;;;;;;;24.08;13.35;;;;;;;9.13;100.00;98954.47;4948787;28;20158;-63
2023/04/28 02:31:12;;;;;;;25.92;14.88;;;;;;;8.95;100.00;98957.34;4941614;28;20047;-62
2023/04/28 02:33:44;;;;;;;22.10;14.25;;;;;;;9.01;100.00;98951.03;4957060;28;20039;-62
2023/04/28 02:36:12;;;;;;;24.75;14.07;;;;;;;9.06;100.00;98951.13;4954200;28;20054;-62
2023/04/28 02:38:40;;;;;;;25.02;14.25;;;;;;;8.98;100.00;98946.19;4950404;28;20391;-62
2023/04/28 02:41:08;;;;;;;27.38;14.77;;;;;;;9.00;100.00;98947.56;4956232;28;20098;-62
2023/04/28 02:43:35;;;;;;;26.90;15.02;;;;;;;9.09;100.00;98950.69;4953065;28;20428;-62
2023/04/28 02:46:03;;;;;;;25.65;14.07;;;;;;;9.04;100.00;98950.59;4930190;29;20055;-62
2023/04/28 02:48:29;;;;;;;27.42;15.02;;;;;;;8.81;100.00;98952.31;4949901;28;20122;-62
2023/04/28 02:50:58;;;;;;;25.63;14.60;;;;;;;8.83;100.00;98950.19;4948985;28;20074;-62
2023/04/28 02:53:25;;;;;;;39.47;20.15;;;;;;;8.88;100.00;98946.78;4948790;28;20044;-62
2023/04/28 02:55:52;;;;;;;29.10;16.08;;;;;;;8.72;100.00;98945.69;4945166;28;20116;-62
2023/04/28 02:58:19;;;;;;;32.92;17.42;;;;;;;8.85;100.00;98948.09;4956134;28;20051;-62
2023/04/28 03:00:48;;;;;;;28.45;15.70;;;;;;;8.86;100.00;98946.22;4939679;28;20146;-62
2023/04/28 03:03:16;;;;;;;28.40;16.60;;;;;;;8.96;100.00;98941.09;4947128;28;20050;-62
2023/04/28 03:05:43;;;;;;;26.17;15.30;;;;;;;9.01;100.00;98937.69;4954126;28;20047;-62
2023/04/28 03:08:14;;;;;;;23.85;14.95;;;;;;;9.02;100.00;98931.28;4947180;28;20043;-62
2023/04/28 03:10:41;;;;;;;25.25;15.88;;;;;;;8.99;100.00;98932.59;4951983;28;20054;-62
2023/04/28 03:13:08;;;;;;;27.95;15.43;;;;;;;9.11;100.00;98924.53;4946973;28;20378;-62
2023/04/28 03:15:35;;;;;;;28.70;15.35;;;;;;;9.14;100.00;98924.03;4950451;28;20055;-62
2023/04/28 03:18:02;;;;;;;29.23;15.02;;;;;;;9.10;100.00;98906.84;4949434;28;20036;-62
2023/04/28 03:20:29;;;;;;;30.30;16.00;;;;;;;8.96;100.00;98905.50;4950324;28;20047;-62
2023/04/28 03:22:56;;;;;;;29.92;15.23;;;;;;;8.84;100.00;98895.69;4947846;28;20396;-62
2023/04/28 03:25:24;;;;;;;25.70;15.50;;;;;;;8.92;100.00;98893.69;4948634;28;20126;-62
2023/04/28 03:27:52;;;;;;;28.60;13.82;;;;;;;9.01;100.00;98894.91;4941182;28;20122;-62
2023/04/28 03:30:19;;;;;;;22.60;13.98;;;;;;;9.01;100.00;98881.53;4944553;28;20045;-62
2023/04/28 03:32:46;;;;;;;25.52;13.68;;;;;;;9.18;100.00;98886.91;4948350;28;20047;-62
2023/04/28 03:35:14;;;;;;;20.25;12.68;;;;;;;9.22;100.00;98886.19;4948768;28;20044;-62
2023/04/28 03:37:42;;;;;;;21.75;12.23;;;;;;;9.22;100.00;98872.81;4955890;28;20070;-62
2023/04/28 03:40:10;;;;;;;22.23;12.95;;;;;;;9.37;100.00;98872.28;4951909;28;20059;-62
2023/04/28 03:42:59;;;;;;;22.45;13.18;;;;;;;9.40;100.00;98870.97;4945572;28;20462;-62
2023/04/28 03:45:33;;;;;;;21.50;14.50;;;;;;;9.31;100.00;98864.41;4952933;28;20039;-62
2023/04/28 03:48:00;;;;;;;24.73;14.65;;;;;;;9.23;100.00;98857.59;4954166;28;20040;-63
2023/04/28 03:50:28;;;;;;;26.42;14.25;;;;;;;9.25;100.00;98856.28;4952653;28;20190;-62
2023/04/28 03:52:55;;;;;;;26.13;13.65;;;;;;;9.25;100.00;98866.19;4940472;28;20122;-62
2023/04/28 03:55:22;;;;;;;17.80;13.88;;;;;;;9.15;100.00;98858.00;4947696;28;20047;-61
2023/04/28 03:57:51;;;;;;;24.23;13.95;;;;;;;9.20;100.00;98861.56;4946996;28;20089;-62
2023/04/28 04:00:20;;;;;;;21.75;13.80;;;;;;;9.18;100.00;98866.31;4945124;28;20067;-62
2023/04/28 04:02:48;;;;;;;;;;;;;;;9.12;100.00;98866.50;4947035;28;20048;-62
2023/04/28 04:05:16;;;;;;;24.00;12.57;;;;;;;9.09;100.00;98867.81;4953411;28;20013;-62
2023/04/28 04:07:43;;;;;;;21.80;13.85;;;;;;;9.08;100.00;98858.13;4949332;28;20413;-62
2023/04/28 04:10:11;;;;;;;23.48;12.88;;;;;;;8.84;100.00;98854.81;4932570;28;20359;-62
2023/04/28 04:12:41;;;;;;;25.38;12.25;;;;;;;8.82;100.00;98846.22;4950017;28;20044;-62
2023/04/28 04:15:09;;;;;;;21.08;13.90;;;;;;;8.76;100.00;98853.34;4937759;28;20075;-62
2023/04/28 04:17:39;;;;;;;22.97;12.73;;;;;;;8.89;100.00;98857.56;4951937;28;20572;-62
2023/04/28 04:20:07;;;;;;;20.85;12.43;;;;;;;8.96;100.00;98857.38;4943773;28;20134;-62
2023/04/28 04:22:34;;;;;;;17.25;12.15;;;;;;;9.00;100.00;98854.00;4945046;28;20070;-63
2023/04/28 04:25:02;;;;;;;23.30;12.63;;;;;;;9.06;100.00;98847.72;4944379;28;20133;-62
2023/04/28 04:27:29;;;;;;;20.45;12.60;;;;;;;9.01;100.00;98844.13;4950156;28;20051;-62
2023/04/28 04:29:56;;;;;;;18.60;11.98;;;;;;;9.06;100.00;98839.69;4950120;28;20151;-62
2023/04/28 04:32:23;;;;;;;18.63;12.20;;;;;;;9.02;100.00;98840.41;4949816;28;20051;-62
2023/04/28 04:34:51;;;;;;;23.25;11.63;;;;;;;9.09;100.00;98838.41;4950369;28;20087;-62
2023/04/28 04:37:19;;;;;;;15.25;10.73;;;;;;;9.17;100.00;98835.31;4947612;28;20047;-62
2023/04/28 04:39:57;;;;;;;17.02;11.55;;;;;;;8.99;100.00;98835.56;4943702;28;20035;-62
2023/04/28 04:42:25;;;;;;;19.35;11.80;;;;;;;8.93;100.00;98836.50;4957120;28;20443;-62
2023/04/28 04:45:06;;;;;;;18.02;12.05;;;;;;;9.02;100.00;98851.09;4938572;28;20072;-62
2023/04/28 04:47:33;;;;;;;16.38;12.07;;;;;;;9.03;100.00;98864.22;4938216;28;20408;-62
2023/04/28 04:50:01;;;;;;;18.52;11.63;;;;;;;9.09;100.00;98845.59;4937208;28;20122;-63
2023/04/28 04:52:29;;;;;;;17.00;10.95;;;;;;;9.04;100.00;98841.78;4934472;28;20110;-62
2023/04/28 04:54:56;;;;;;;18.25;10.95;;;;;;;8.97;100.00;98843.00;4949638;28;20108;-62
2023/04/28 04:57:24;;;;;;;15.73;10.90;;;;;;;8.90;100.00;98837.00;4951583;28;20461;-62
2023/04/28 05:00:12;;;;;;;18.17;10.18;;;;;;;8.98;100.00;98847.28;4936778;28;20059;-62
2023/04/28 05:02:40;;;;;;;15.77;10.35;;;;;;;9.06;100.00;98846.88;4946987;28;20038;-62
2023/04/28 05:05:09;;;;;;;19.27;10.65;;;;;;;9.07;100.00;98854.66;4940968;28;20047;-62
2023/04/28 05:07:38;;;;;;;21.45;11.05;;;;;;;9.02;100.00;98843.06;4937539;28;20634;-62
2023/04/28 05:10:06;;;;;;;19.70;11.10;;;;;;;8.96;100.00;98842.19;4937421;28;20051;-62
2023/04/28 05:12:33;;;;;;;15.90;11.35;;;;;;;8.99;100.00;98838.22;4947653;28;20046;-62
2023/04/28 05:15:00;;;;;;;17.23;11.52;;;;;;;9.03;100.00;98844.69;4939568;28;20168;-62
2023/04/28 05:17:27;;;;;;;17.38;11.32;;;;;;;9.03;100.00;98848.16;4948203;28;20504;-62
2023/04/28 05:19:55;;;;;;;13.68;10.98;;;;;;;9.08;100.00;98852.78;4947251;28;20141;-62
2023/04/28 05:22:24;;;;;;;19.42;11.02;;;;;;;9.04;100.00;98849.00;4941730;28;20056;-63
2023/04/28 05:24:52;;;;;;;19.58;10.57;;;;;;;9.11;100.00;98851.50;4945782;28;20046;-63
2023/04/28 05:27:19;;;;;;;20.58;11.30;;;;;;;9.15;100.00;98866.81;4940536;28;20463;-63
2023/04/28 05:29:46;;;;;;;19.08;11.50;;;;;;;9.27;100.00;98854.19;4946172;28;20044;-62
2023/04/28 05:32:13;;;;;;;18.27;11.48;;;;;;;9.31;100.00;98864.41;4944463;28;20139;-63
2023/04/28 05:34:40;;;;;;;17.67;10.50;;;;;;;9.24;100.00;98860.03;4951246;28;20129;-63
2023/04/28 05:37:07;;;;;;;17.55;10.65;;;;;;;9.22;100.00;98867.47;4941669;28;20122;-63
2023/04/28 05:39:37;;;;;;;18.83;10.63;;;;;;;9.24;100.00;98860.03;4950388;28;20385;-63
2023/04/28 05:42:06;;;;;;;16.70;10.27;;;;;;;9.20;100.00;98858.88;4939436;28;20043;-63
2023/04/28 05:44:33;;;;;;;13.77;10.10;;;;;;;9.24;100.00;98862.72;4941447;28;20067;-63
2023/04/28 05:47:00;;;;;;;17.88;10.70;;;;;;;9.24;100.00;98865.38;4939237;28;20055;-63
2023/04/28 05:49:27;;;;;;;12.88;10.57;;;;;;;9.23;100.00;98863.75;4947465;28;20286;-63
2023/04/28 05:51:54;;;;;;;15.50;10.55;;;;;;;9.24;100.00;98864.56;4947248;28;20043;-62
2023/04/28 05:54:22;;;;;;;21.48;10.43;;;;;;;9.14;100.00;98861.72;4942144;28;20047;-63
2023/04/28 05:56:54;;;;;;;17.88;10.38;;;;;;;9.27;100.00;98854.19;4950538;28;20035;-63
2023/04/28 05:59:21;;;;;;;14.88;10.70;;;;;;;9.31;100.00;98859.03;4944074;28;20099;-63
2023/04/28 06:01:49;;;;;;;18.40;10.38;;;;;;;9.44;100.00;98862.22;4939663;28;20687;-63
2023/04/28 06:04:16;;;;;;;16.63;10.63;;;;;;;9.42;100.00;98850.16;4946274;28;20039;-63
2023/04/28 06:06:44;;;;;;;19.48;10.98;;;;;;;9.52;100.00;98852.16;4943177;28;20106;-63
2023/04/28 06:09:11;;;;;;;12.63;10.63;;;;;;;9.43;100.00;98854.44;4941271;28;20044;-62
2023/04/28 06:11:38;;;;;;;15.65;11.40;;;;;;;9.42;100.00;98850.94;4947867;28;20452;-62
2023/04/28 06:14:06;;;;;;;25.35;11.52;;;;;;;9.57;100.00;98863.75;4936889;28;20078;-63
2023/04/28 06:16:33;;;;;;;19.38;11.82;;;;;;;9.77;100.00;98862.44;4945172;28;20082;-63
2023/04/28 06:19:01;;;;;;;17.75;11.90;;;;;;;9.76;100.00;98858.13;4943753;28;20486;-63
2023/04/28 06:21:28;;;;;;;17.15;11.13;;;;;;;9.71;100.00;98848.97;4946335;28;20105;-63
2023/04/28 06:23:57;;;;;;;16.52;11.23;;;;;;;9.71;100.00;98840.94;4925486;29;20044;-63
2023/04/28 06:26:24;;;;;;;16.55;10.77;;;;;;;9.74;100.00;98836.16;4941917;28;20507;-63
2023/04/28 06:28:51;;;;;;;16.25;11.50;;;;;;;9.81;100.00;98828.75;4950451;28;20130;-63
2023/04/28 06:31:19;;;;;;;17.20;10.55;;;;;;;9.96;100.00;98826.31;4947907;28;20035;-62
2023/04/28 06:33:46;;;;;;;15.68;10.82;;;;;;;10.14;100.00;98815.28;4923843;29;20134;-62
2023/04/28 06:36:15;;;;;;;18.30;11.55;;;;;;;10.31;100.00;98814.44;4946846;28;20232;-63
2023/04/28 06:38:43;;;;;;;20.88;11.23;;;;;;;10.36;100.00;98817.97;4948932;28;20094;-63
2023/04/28 06:41:10;;;;;;;20.25;11.20;;;;;;;10.59;100.00;98824.09;4938498;28;20056;-63
2023/04/28 06:43:38;;;;;;;15.48;10.88;;;;;;;10.71;100.00;98822.09;4935593;28;20051;-63
2023/04/28 06:46:10;;;;;;;16.55;11.38;;;;;;;10.78;100.00;98830.75;4947415;28;20044;-63
2023/04/28 06:48:38;;;;;;;21.40;11.02;;;;;;;10.78;100.00;98840.63;4940831;28;20106;-63
2023/04/28 06:51:05;;;;;;;23.10;11.27;;;;;;;10.62;100.00;98852.28;4944924;28;20047;-63
2023/04/28 06:53:36;;;;;;;16.52;10.48;;;;;;;10.69;100.00;98856.38;4933461;28;20616;-63
2023/04/28 06:56:03;;;;;;;22.40;10.70;;;;;;;10.69;100.00;98847.53;4939934;28;20051;-63
2023/04/28 06:58:30;;;;;;;17.83;10.60;;;;;;;10.66;100.00;98848.84;4944312;28;20083;-63
2023/04/28 07:00:57;;;;;;;13.95;10.30;;;;;;;10.82;100.00;98843.63;4921996;29;20423;-63
2023/04/28 07:03:24;;;;;;;18.80;11.52;;;;;;;11.14;100.00;98843.66;4938334;28;20542;-63
2023/04/28 07:05:53;;;;;;;18.63;10.48;;;;;;;11.51;100.00;98848.25;4947447;28;20520;-63
2023/04/28 07:08:20;;;;;;;12.80;9.27;;;;;;;12.39;100.00;98839.59;4944598;28;20149;-63
2023/04/28 07:10:47;;;;;;;12.32;9.20;;;;;;;12.27;100.00;98856.75;4936297;28;20648;-63
2023/04/28 07:13:14;;;;;;;15.35;9.10;;;;;;;12.02;100.00;98853.94;4942694;28;20486;-63
2023/04/28 07:15:41;;;;;;;15.45;9.68;;;;;;;12.56;100.00;98855.53;4951734;28;20469;-63
2023/04/28 07:18:07;;;;;;;14.63;9.65;;;;;;;12.73;100.00;98853.44;4929651;28;20122;-63
2023/04/28 07:20:35;;;;;;;14.43;8.65;;;;;;;13.47;100.00;98857.53;4940569;28;20062;-63
2023/04/28 07:23:06;;;;;;;16.83;9.05;;;;;;;12.89;99.41;98863.13;4948826;28;20053;-63
2023/04/28 07:25:34;;;;;;;12.57;9.50;;;;;;;12.75;100.00;98870.06;4936037;28;20446;-63
2023/04/28 07:28:03;;;;;;;12.27;9.15;;;;;;;12.46;100.00;98869.75;4941629;28;20470;-63
2023/04/28 07:30:30;;;;;;;14.23;9.52;;;;;;;12.29;100.00;98870.72;4945340;28;20043;-63
2023/04/28 07:32:57;;;;;;;15.15;8.82;;;;;;;12.32;100.00;98865.91;4934213;28;20127;-63
2023/04/28 07:35:25;;;;;;;15.15;9.93;;;;;;;12.67;100.00;98870.59;4955308;28;20047;-63
2023/04/28 07:37:52;;;;;;;16.25;9.25;;;;;;;12.82;100.00;98878.69;4951692;28;20145;-63
2023/04/28 07:40:20;;;;;;;15.07;8.60;;;;;;;12.94;100.00;98875.78;4939385;28;20557;-63
2023/04/28 07:42:47;;;;;;;16.58;9.07;;;;;;;13.80;94.05;98876.88;4933618;28;20044;-63
2023/04/28 07:45:15;;;;;;;13.70;8.95;;;;;;;15.14;91.79;98867.16;4947856;28;20051;-63
2023/04/28 07:47:42;;;;;;;15.75;9.00;;;;;;;16.35;82.41;98871.72;4951272;28;20047;-63
2023/04/28 07:50:11;;;;;;;16.00;8.63;;;;;;;15.90;80.33;98867.59;4952394;28;20051;-62
2023/04/28 07:52:38;;;;;;;12.77;7.45;;;;;;;17.95;72.43;98870.19;4945497;28;20166;-63
2023/04/28 07:55:05;;;;;;;10.90;7.72;;;;;;;16.92;79.68;98866.38;4942701;28;20479;-62
2023/04/28 07:57:34;;;;;;;10.35;7.53;;;;;;;16.13;79.53;98866.84;4939556;28;20055;-62
2023/04/28 08:00:02;;;;;;;14.00;7.72;;;;;;;16.54;80.57;98871.72;4935869;28;20035;-62
2023/04/28 08:02:38;;;;;;;11.48;6.55;;;;;;;16.00;83.91;98872.09;4936901;28;20051;-62
2023/04/28 08:05:07;;;;;;;6.55;4.78;;;;;;;14.77;84.69;98870.38;4931821;28;20126;-62
2023/04/28 08:07:35;;;;;;;7.90;5.82;;;;;;;14.13;91.94;98869.28;4940616;28;20494;-62
2023/04/28 08:10:02;;;;;;;9.68;7.00;;;;;;;14.80;94.05;98873.34;4944587;28;20314;-62
2023/04/28 08:12:30;;;;;;;11.73;7.53;;;;;;;15.05;92.00;98876.94;4945532;28;20079;-62
2023/04/28 08:14:58;;;;;;;9.25;7.38;;;;;;;14.70;94.55;98878.75;4952931;28;20059;-62
2023/04/28 08:17:25;;;;;;;8.82;6.82;;;;;;;14.45;93.67;98871.56;4945926;28;20490;-62
2023/04/28 08:19:53;;;;;;;11.05;7.47;;;;;;;14.51;93.85;98877.75;4951323;28;20066;-62
2023/04/28 08:22:20;;;;;;;10.85;6.70;;;;;;;14.27;97.83;98878.38;4950140;28;20047;-62
2023/04/28 08:24:47;;;;;;;12.48;7.43;;;;;;;14.10;100.00;98880.59;4941338;28;20047;-62
2023/04/28 08:27:14;;;;;;;10.57;7.63;;;;;;;14.00;100.00;98890.34;4940094;28;20504;-62
2023/04/28 08:29:41;;;;;;;12.57;7.15;;;;;;;14.20;98.05;98884.09;4948712;28;20416;-62
2023/04/28 08:32:09;;;;;;;11.63;6.78;;;;;;;14.04;98.99;98887.88;4952911;28;20141;-62
2023/04/28 08:34:36;;;;;;;8.88;6.07;;;;;;;13.71;98.62;98889.31;4953849;28;20043;-62
2023/04/28 08:37:03;;;;;;;7.80;5.68;;;;;;;13.22;100.00;98893.28;4947123;28;20727;-63
2023/04/28 08:39:32;;;;;;;8.88;6.53;;;;;;;14.00;100.00;98887.63;4944890;28;20047;-62
2023/04/28 08:41:59;;;;;;;9.82;7.10;;;;;;;14.50;99.43;98886.91;4951429;28;20131;-62
2023/04/28 08:44:27;;;;;;;9.32;6.03;;;;;;;14.81;97.35;98880.34;4937612;28;20460;-61
2023/04/28 08:46:54;;;;;;;8.13;6.20;;;;;;;15.15;92.72;98886.84;4945845;28;20138;-62
2023/04/28 08:49:23;;;;;;;8.45;6.32;;;;;;;17.10;85.45;98889.16;4941722;28;20055;-62
2023/04/28 08:51:52;;;;;;;7.20;5.35;;;;;;;16.28;85.12;98889.38;4944837;28;20139;-63
2023/04/28 08:54:19;;;;;;;8.75;5.05;;;;;;;16.09;89.03;98882.00;4946691;28;20040;-62
2023/04/28 08:56:46;;;;;;;7.38;4.70;;;;;;;15.44;89.38;98881.53;4940138;28;20450;-62
2023/04/28 08:59:13;;;;;;;7.25;4.82;;;;;;;13.93;98.50;98879.03;4942238;28;20059;-62
2023/04/28 09:01:40;;;;;;;7.43;5.10;;;;;;;14.89;94.83;98887.84;4938956;28;20043;-62
2023/04/28 09:04:09;;;;;;;9.73;5.72;;;;;;;15.29;91.68;98888.66;4936809;28;20071;-62
2023/04/28 09:06:38;;;;;;;7.45;5.03;;;;;;;14.82;94.10;98895.41;4948174;28;20046;-62
2023/04/28 09:09:26;;;;;;;7.75;5.28;;;;;;;14.72;97.83;98882.00;4946589;28;20043;-62
2023/04/28 09:11:54;;;;;;;7.95;5.60;;;;;;;14.58;96.59;98891.78;4937322;28;20139;-62
2023/04/28 09:14:21;;;;;;;9.98;6.28;;;;;;;14.15;100.00;98899.44;4948149;28;20475;-62
2023/04/28 09:16:48;;;;;;;9.40;5.45;;;;;;;14.84;95.86;98901.34;4939376;28;20067;-62
2023/04/28 09:19:15;;;;;;;7.68;5.78;;;;;;;14.91;97.98;98900.25;4945145;28;20054;-62
2023/04/28 09:21:54;;;;;;;7.45;5.40;;;;;;;14.60;95.70;98900.38;4942521;28;20054;-62
2023/04/28 09:24:31;;;;;;;7.07;5.43;;;;;;;14.08;99.21;98896.22;4945758;28;20126;-63
2023/04/28 09:26:58;;;;;;;7.57;5.40;;;;;;;15.54;92.08;98892.25;4945591;28;20043;-62
2023/04/28 09:29:25;;;;;;;10.32;5.28;;;;;;;16.01;91.37;98898.06;4946178;28;20045;-62
2023/04/28 09:31:53;;;;;;;6.97;5.70;;;;;;;15.70;91.13;98892.94;4946168;28;20043;-62
2023/04/28 09:34:20;;;;;;;7.78;5.95;;;;;;;15.11;93.45;98892.03;4941247;28;20058;-62
2023/04/28 09:36:47;;;;;;;8.27;5.70;;;;;;;14.70;95.12;98894.94;4939136;28;20054;-62
2023/04/28 09:39:15;;;;;;;7.38;5.55;;;;;;;14.71;97.06;98893.88;4935925;28;20056;-62
2023/04/28 09:41:44;;;;;;;7.15;5.75;;;;;;;14.86;97.13;98885.69;4946106;28;20186;-63
2023/04/28 09:44:15;;;;;;;7.00;5.35;;;;;;;15.13;96.90;98886.34;4937512;28;20796;-62
2023/04/28 09:46:44;;;;;;;8.80;5.47;;;;;;;15.22;94.49;98874.66;4936672;28;20069;-62
2023/04/28 09:49:12;;;;;;;8.50;5.78;;;;;;;15.24;98.21;98877.09;4947846;28;20102;-62
2023/04/28 09:51:39;;;;;;;8.30;5.18;;;;;;;16.05;91.42;98881.00;4937425;28;20047;-62
2023/04/28 09:54:06;;;;;;;7.68;5.35;;;;;;;15.39;93.19;98881.56;4944363;28;20479;-62
2023/04/28 09:56:37;;;;;;;7.60;5.05;;;;;;;15.80;91.79;98879.34;4950160;28;20043;-63
2023/04/28 09:59:04;;;;;;;10.55;6.03;;;;;;;15.79;91.66;98872.31;4954718;28;20043;-62
2023/04/28 10:01:33;;;;;;;8.63;5.13;;;;;;;16.70;88.99;98868.81;4942892;28;20063;-62
2023/04/28 10:04:00;;;;;;;7.60;5.05;;;;;;;14.73;95.30;98872.84;4950043;28;20051;-62
2023/04/28 10:06:28;;;;;;;7.70;5.07;;;;;;;15.23;98.31;98868.19;4948589;28;20038;-62
2023/04/28 10:08:57;;;;;;;6.65;5.10;;;;;;;15.53;95.58;98872.53;4936697;28;20127;-62
2023/04/28 10:11:25;;;;;;;6.43;5.03;;;;;;;15.24;96.49;98867.09;4947111;28;20052;-62
2023/04/28 10:13:53;;;;;;;8.35;4.93;;;;;;;16.20;92.85;98866.50;4932420;28;20486;-62
2023/04/28 10:16:21;;;;;;;6.30;4.50;;;;;;;16.15;90.38;98859.25;4946391;28;20097;-62
2023/04/28 10:18:48;;;;;;;8.30;5.20;;;;;;;14.93;98.26;98844.91;4943946;28;20121;-62
2023/04/28 10:21:17;;;;;;;7.65;5.78;;;;;;;15.98;94.65;98845.38;4938863;28;20632;-62
2023/04/28 10:24:04;;;;;;;9.18;5.85;;;;;;;17.53;86.70;98847.56;4945682;28;20052;-62
2023/04/28 10:26:58;;;;;;;7.22;5.25;;;;;;;17.39;87.62;98842.09;4943663;28;20043;-62
2023/04/28 10:29:27;;;;;;;6.55;4.65;;;;;;;17.61;85.53;98849.59;4944483;28;20469;-62
2023/04/28 10:32:17;;;;;;;7.78;5.43;;;;;;;18.63;81.14;98844.13;4946593;28;20039;-62
2023/04/28 10:34:44;;;;;;;5.40;4.53;;;;;;;17.04;84.39;98836.97;4952448;28;20422;-62
2023/04/28 10:37:13;;;;;;;7.45;4.50;;;;;;;19.06;80.42;98830.13;4940425;28;20050;-62
2023/04/28 10:39:40;;;;;;;5.70;4.75;;;;;;;17.96;82.61;98828.38;4945714;28;20046;-62
2023/04/28 10:42:41;;;;;;;6.30;4.50;;;;;;;16.15;91.51;98831.41;4936630;28;20553;-64
2023/04/28 10:45:10;;;;;;;6.88;4.80;;;;;;;17.39;85.14;98820.44;4907927;29;20503;-62
2023/04/28 10:48:05;;;;;;;5.45;4.00;;;;;;;18.06;83.24;98814.63;4902652;28;20502;-62
2023/04/28 10:50:32;;;;;;;4.90;3.78;;;;;;;17.77;83.39;98826.56;4902587;29;20496;-62
2023/04/28 10:52:59;;;;;;;5.90;4.45;;;;;;;18.53;83.25;98818.00;4912842;29;20044;-62
2023/04/28 10:55:27;;;;;;;5.93;4.45;;;;;;;19.51;76.64;98811.88;4905612;29;20103;-62
2023/04/28 10:58:27;;;;;;;6.25;4.35;;;;;;;18.71;81.40;98811.59;4912436;29;20127;-62
2023/04/28 11:00:56;;;;;;;6.13;4.32;;;;;;;20.18;75.85;98807.41;4911268;29;20071;-62
2023/04/28 11:03:42;;;;;;;5.10;3.75;;;;;;;19.26;73.61;98809.81;4911454;29;20365;-62
2023/04/28 11:06:19;;;;;;;6.05;4.07;;;;;;;17.71;85.42;98799.84;4909036;29;20044;-62
2023/04/28 11:08:46;;;;;;;7.50;4.05;;;;;;;19.02;79.73;98800.09;4910505;29;20153;-62
2023/04/28 11:11:15;;;;;;;6.40;4.40;;;;;;;19.05;77.24;98802.19;4898357;29;20048;-62
2023/04/28 11:13:42;;;;;;;6.75;3.50;;;;;;;19.66;79.69;98801.72;4910778;29;20450;-62
2023/04/28 11:16:10;;;;;;;7.18;3.35;;;;;;;20.33;75.03;98798.00;4908888;29;20096;-61
2023/04/28 11:19:02;;;;;;;6.25;3.90;;;;;;;18.42;79.69;98803.84;4904643;28;20051;-63
2023/04/28 11:21:29;;;;;;;5.30;3.88;;;;;;;18.31;81.53;98794.31;4898654;29;20043;-62
2023/04/28 11:23:56;;;;;;;4.40;3.15;;;;;;;18.11;81.24;98784.69;4901062;29;20155;-63
2023/04/28 11:26:23;;;;;;;5.00;3.50;;;;;;;19.15;78.00;98785.63;4912326;29;20048;-62
2023/04/28 11:28:51;;;;;;;4.38;3.28;;;;;;;18.69;78.19;98778.53;4916410;29;20043;-62